Time;durP1;ratioP1;P1;durP2;ratioP2;P2;SDS_P1;SDS_P2;PMS_P1;PMS_P2;Temp;Humidity;BMP_temperature;BMP_pressure;BME280_temperature;BME280_humidity;BME280_pressure;Samples;Min_cycle;Max_cycle;Signal;HPM_P1;HPM_P2
2023/12/20 00:04:36;;;;;;;1.80;0.70;;;;;;;0.51;89.10;97965.75;10437686;28;20040;-59
2023/12/20 00:09:39;;;;;;;0.68;0.65;;;;;;;0.57;88.50;97961.97;10438086;28;20045;-61
2023/12/20 00:14:41;;;;;;;1.67;0.80;;;;;;;0.57;88.22;97945.78;10440338;28;20037;-60
2023/12/20 00:19:45;;;;;;;1.50;0.68;;;;;;;0.47;88.72;97948.53;10444274;28;20041;-60
2023/12/20 00:24:47;;;;;;;2.03;0.50;;;;;;;0.47;88.49;97941.25;10440411;28;20041;-60
2023/12/20 00:29:50;;;;;;;1.17;0.60;;;;;;;0.51;88.38;97941.47;10425848;28;20041;-60
2023/12/20 00:34:54;;;;;;;1.23;0.50;;;;;;;0.56;88.17;97931.47;10442215;28;20413;-60
2023/12/20 00:39:58;;;;;;;2.67;0.75;;;;;;;0.48;88.12;97925.88;10446355;28;20420;-60
2023/12/20 00:45:02;;;;;;;2.35;0.80;;;;;;;0.44;88.91;97943.72;10445515;28;20049;-60
2023/12/20 00:50:05;;;;;;;0.98;0.68;;;;;;;0.48;88.99;97920.47;10432105;28;20521;-61
2023/12/20 00:55:08;;;;;;;2.30;0.70;;;;;;;0.51;88.46;97925.28;10444107;28;20025;-61
2023/12/20 01:00:11;;;;;;;2.72;0.77;;;;;;;0.45;88.42;97918.34;10437718;28;20037;-62
2023/12/20 01:05:13;;;;;;;2.70;0.90;;;;;;;0.48;88.43;97898.88;10444889;28;20084;-62
2023/12/20 01:10:15;;;;;;;1.75;0.70;;;;;;;0.55;88.06;97912.88;10437931;28;20038;-62
2023/12/20 01:15:17;;;;;;;2.95;0.70;;;;;;;0.53;88.49;97928.53;10440237;28;20037;-61
2023/12/20 01:20:20;;;;;;;2.05;0.73;;;;;;;0.52;88.63;97935.00;10433020;28;20685;-61
2023/12/20 01:25:22;;;;;;;2.10;0.60;;;;;;;0.55;88.36;97927.16;10439269;28;20053;-60
2023/12/20 01:30:24;;;;;;;3.22;0.77;;;;;;;0.57;88.27;97913.41;10440391;28;20037;-61
2023/12/20 01:35:27;;;;;;;2.38;0.57;;;;;;;0.46;88.45;97912.66;10434187;28;20025;-61
2023/12/20 01:40:29;;;;;;;2.75;0.73;;;;;;;0.42;88.57;97900.84;10446631;28;20040;-61
2023/12/20 01:45:31;;;;;;;1.67;0.70;;;;;;;0.42;88.76;97910.81;10441937;28;20539;-61
2023/12/20 01:50:36;;;;;;;2.15;0.57;;;;;;;0.40;88.36;97886.81;10445099;28;20044;-61
2023/12/20 01:55:42;;;;;;;1.25;0.60;;;;;;;0.37;88.48;97883.91;10431650;28;20045;-60
2023/12/20 02:00:44;;;;;;;0.70;0.40;;;;;;;0.31;88.74;97899.28;10432537;28;20040;-60
2023/12/20 02:05:47;;;;;;;3.20;0.60;;;;;;;0.40;88.84;97889.53;10428525;28;20413;-60
2023/12/20 02:10:50;;;;;;;1.25;0.57;;;;;;;0.37;87.99;97884.69;10427992;28;20029;-61
2023/12/20 02:15:54;;;;;;;2.45;0.30;;;;;;;0.44;87.44;97901.34;10437619;28;20046;-60
2023/12/20 02:20:56;;;;;;;2.20;0.50;;;;;;;0.47;87.37;97894.59;10429831;28;20037;-61
2023/12/20 02:25:59;;;;;;;3.70;0.75;;;;;;;0.42;87.59;97894.63;10421590;28;20076;-60
2023/12/20 02:31:02;;;;;;;1.00;0.57;;;;;;;0.48;87.28;97896.19;10421009;28;20045;-61
2023/12/20 02:36:05;;;;;;;2.10;0.43;;;;;;;0.44;87.94;97879.78;10440358;28;20041;-60
2023/12/20 02:41:08;;;;;;;2.40;0.63;;;;;;;0.49;87.24;97874.31;10432740;28;20048;-61
2023/12/20 02:46:11;;;;;;;1.95;0.52;;;;;;;0.48;86.81;97875.41;10441923;28;20456;-61
2023/12/20 02:51:14;;;;;;;3.28;0.80;;;;;;;0.47;87.30;97873.00;10440044;28;20048;-61
2023/12/20 02:56:17;;;;;;;2.95;0.70;;;;;;;0.48;86.65;97867.31;10437331;28;20497;-61
2023/12/20 03:01:20;;;;;;;2.35;0.55;;;;;;;0.46;86.40;97874.91;10438081;28;20420;-62
2023/12/20 03:06:22;;;;;;;1.35;0.57;;;;;;;0.48;86.58;97880.00;10440560;28;20044;-62
2023/12/20 03:11:28;;;;;;;0.80;0.50;;;;;;;0.56;86.37;97868.63;10437346;28;20052;-62
2023/12/20 03:16:32;;;;;;;1.20;0.70;;;;;;;0.59;86.22;97860.75;10435160;28;20033;-61
2023/12/20 03:21:35;;;;;;;0.80;0.40;;;;;;;0.63;85.10;97863.69;10425166;28;20042;-60
2023/12/20 03:26:38;;;;;;;2.13;0.40;;;;;;;0.60;85.18;97856.16;10435650;28;20133;-62
2023/12/20 03:31:41;;;;;;;2.25;0.60;;;;;;;0.67;84.20;97850.41;10437551;28;20045;-61
2023/12/20 03:36:44;;;;;;;1.25;0.73;;;;;;;0.63;83.56;97854.78;10439577;28;20191;-60
2023/12/20 03:41:46;;;;;;;1.67;0.60;;;;;;;0.64;83.66;97849.09;10439376;28;20037;-61
2023/12/20 03:46:49;;;;;;;1.52;0.60;;;;;;;0.74;83.86;97861.69;10435107;28;20057;-61
2023/12/20 03:51:52;;;;;;;2.85;0.70;;;;;;;0.83;83.41;97849.97;10436959;28;20611;-60
2023/12/20 03:56:54;;;;;;;1.95;0.55;;;;;;;0.72;83.01;97845.00;10437596;28;20052;-60
2023/12/20 04:01:56;;;;;;;0.88;0.28;;;;;;;0.80;82.48;97833.56;10424276;28;20042;-62
2023/12/20 04:06:59;;;;;;;0.63;0.20;;;;;;;0.81;81.40;97841.38;10432994;28;20040;-62
2023/12/20 04:12:03;;;;;;;0.25;0.10;;;;;;;0.80;82.10;97855.94;10438901;28;20123;-62
2023/12/20 04:17:05;;;;;;;0.20;0.20;;;;;;;0.83;81.83;97860.78;10429674;28;20045;-62
2023/12/20 04:22:14;;;;;;;4.70;0.52;;;;;;;0.81;82.31;97846.75;10436666;28;20175;-61
2023/12/20 04:27:17;;;;;;;2.55;0.25;;;;;;;0.86;81.38;97845.91;10423062;28;20042;-61
2023/12/20 04:32:20;;;;;;;0.28;0.08;;;;;;;0.89;81.84;97851.56;10435380;28;20029;-61
2023/12/20 04:37:22;;;;;;;0.40;0.40;;;;;;;0.99;81.23;97855.22;10438044;28;20056;-64
2023/12/20 04:42:25;;;;;;;0.57;0.25;;;;;;;1.02;81.65;97841.13;10432695;28;20516;-61
2023/12/20 04:47:27;;;;;;;1.83;0.50;;;;;;;0.91;81.50;97845.88;10434835;28;20052;-62
2023/12/20 04:52:30;;;;;;;3.15;0.63;;;;;;;0.84;81.29;97862.38;10438770;28;20044;-62
2023/12/20 04:57:32;;;;;;;0.85;0.30;;;;;;;0.89;81.07;97881.25;10443512;28;20554;-63
2023/12/20 05:02:36;;;;;;;2.33;0.60;;;;;;;0.95;81.25;97878.50;10441864;28;20048;-61
2023/12/20 05:07:40;;;;;;;0.00;0.00;;;;;;;0.95;81.59;97884.69;10445560;28;20632;-62
2023/12/20 05:12:42;;;;;;;2.55;0.70;;;;;;;1.01;80.39;97888.13;10443100;28;20029;-61
2023/12/20 05:17:45;;;;;;;0.90;0.40;;;;;;;1.05;81.11;97895.41;10444512;28;20071;-62
2023/12/20 05:22:48;;;;;;;1.85;0.50;;;;;;;1.05;81.03;97898.09;10443565;28;20037;-61
2023/12/20 05:27:50;;;;;;;2.75;0.82;;;;;;;0.93;81.63;97886.06;10447086;28;20046;-61
2023/12/20 05:32:53;;;;;;;2.55;0.90;;;;;;;0.90;82.46;97880.16;10445039;28;20044;-61
2023/12/20 05:37:55;;;;;;;1.13;0.47;;;;;;;0.88;82.67;97871.53;10447194;28;20033;-61
2023/12/20 05:42:58;;;;;;;0.08;0.00;;;;;;;0.85;83.30;97882.88;10445339;28;20041;-61
2023/12/20 05:48:00;;;;;;;0.40;0.15;;;;;;;0.82;82.76;97875.38;10445575;28;20049;-62
2023/12/20 05:53:02;;;;;;;0.17;0.17;;;;;;;0.74;82.82;97865.19;10445847;28;20048;-61
2023/12/20 05:58:05;;;;;;;2.08;0.47;;;;;;;0.70;81.90;97871.47;10446493;28;20056;-61
2023/12/20 06:03:07;;;;;;;1.77;0.47;;;;;;;0.64;81.41;97877.97;10436966;28;20033;-62
2023/12/20 06:08:10;;;;;;;0.32;0.20;;;;;;;0.66;81.36;97887.41;10444412;28;20041;-62
2023/12/20 06:13:13;;;;;;;0.90;0.40;;;;;;;0.64;80.38;97889.56;10442977;28;20068;-62
2023/12/20 06:18:16;;;;;;;2.58;0.70;;;;;;;0.63;79.86;97879.06;10445549;28;20041;-62
2023/12/20 06:23:18;;;;;;;0.00;0.00;;;;;;;0.65;79.17;97884.97;10443356;28;20432;-61
2023/12/20 06:28:21;;;;;;;1.60;0.52;;;;;;;0.63;79.31;97923.03;10443456;28;20421;-62
2023/12/20 06:33:24;;;;;;;0.57;0.10;;;;;;;0.63;79.50;97901.47;10443116;28;20041;-63
2023/12/20 06:38:28;;;;;;;2.95;0.80;;;;;;;0.70;79.33;97915.44;10445115;28;20037;-62
2023/12/20 06:43:30;;;;;;;4.07;0.68;;;;;;;0.74;79.48;97905.69;10436968;28;20037;-62
2023/12/20 06:48:33;;;;;;;1.00;0.20;;;;;;;0.80;79.02;97912.63;10444400;28;20053;-62
2023/12/20 06:53:36;;;;;;;2.65;0.28;;;;;;;0.80;79.79;97928.84;10443531;28;20044;-61
2023/12/20 06:58:38;;;;;;;0.98;0.10;;;;;;;0.88;78.97;97928.22;10442857;28;20068;-61
2023/12/20 07:03:41;;;;;;;0.90;0.30;;;;;;;0.81;79.54;97935.03;10440996;28;20042;-62
2023/12/20 07:08:44;;;;;;;1.80;0.60;;;;;;;0.82;79.50;97933.94;10442852;28;20528;-61
2023/12/20 07:13:46;;;;;;;3.20;0.40;;;;;;;0.84;79.32;97923.66;10442129;28;20033;-62
2023/12/20 07:18:49;;;;;;;0.60;0.32;;;;;;;0.85;79.57;97923.38;10442465;28;20060;-62
2023/12/20 07:23:51;;;;;;;1.63;0.55;;;;;;;0.88;79.68;97927.44;10442615;28;20421;-62
2023/12/20 07:28:53;;;;;;;5.32;0.70;;;;;;;0.87;79.79;97937.44;10441707;28;20049;-62
2023/12/20 07:33:56;;;;;;;0.75;0.30;;;;;;;0.87;79.76;97950.13;10442317;28;20056;-61
2023/12/20 07:38:58;;;;;;;0.20;0.15;;;;;;;0.89;80.41;97943.34;10443664;28;20048;-62
2023/12/20 07:44:00;;;;;;;1.77;0.98;;;;;;;0.90;80.12;97958.44;10445644;28;20044;-62
2023/12/20 07:49:03;;;;;;;2.65;0.43;;;;;;;0.86;80.21;97964.66;10444855;28;20049;-62
2023/12/20 07:54:07;;;;;;;0.95;0.45;;;;;;;0.87;79.88;97975.22;10440566;28;20048;-62
2023/12/20 07:59:10;;;;;;;0.98;0.47;;;;;;;0.86;80.77;97995.16;10442636;28;20045;-62
2023/12/20 08:04:12;;;;;;;2.40;0.35;;;;;;;0.91;80.01;97986.25;10436711;28;20041;-62
2023/12/20 08:09:14;;;;;;;2.08;0.68;;;;;;;0.88;80.02;97993.03;10441382;28;20420;-62
2023/12/20 08:14:17;;;;;;;1.10;0.45;;;;;;;0.89;80.33;98010.84;10440712;28;20029;-62
2023/12/20 08:19:19;;;;;;;2.17;0.20;;;;;;;0.94;80.15;98020.78;10441102;28;20428;-62
2023/12/20 08:24:21;;;;;;;3.10;0.65;;;;;;;0.90;80.15;98027.84;10436355;28;20036;-62
2023/12/20 08:29:23;;;;;;;0.88;0.35;;;;;;;0.91;80.26;98029.44;10440185;28;20524;-61
2023/12/20 08:34:26;;;;;;;1.17;0.50;;;;;;;0.94;80.93;98033.47;10449148;28;20052;-61
2023/12/20 08:39:29;;;;;;;1.15;0.40;;;;;;;0.96;80.40;98036.69;10449044;28;20540;-62
2023/12/20 08:44:32;;;;;;;0.20;0.20;;;;;;;0.96;81.69;98044.78;10423281;28;20045;-63
2023/12/20 08:49:34;;;;;;;1.75;0.60;;;;;;;0.89;82.74;98058.63;10449040;28;20041;-61
2023/12/20 08:54:36;;;;;;;2.58;0.45;;;;;;;0.84;83.52;98072.94;10452685;28;20088;-61
2023/12/20 08:59:38;;;;;;;3.97;0.80;;;;;;;0.83;83.58;98044.34;10447821;28;20041;-61
2023/12/20 09:04:41;;;;;;;1.63;0.40;;;;;;;0.79;83.83;98058.69;10447694;28;20424;-62
2023/12/20 09:09:43;;;;;;;0.50;0.43;;;;;;;0.77;84.73;98090.53;10446602;28;20057;-62
2023/12/20 09:14:47;;;;;;;0.85;0.55;;;;;;;0.70;84.26;98076.56;10442818;28;20041;-62
2023/12/20 09:19:59;;;;;;;1.83;0.20;;;;;;;0.75;83.26;98084.63;10444919;28;20037;-62
2023/12/20 09:25:02;;;;;;;0.90;0.38;;;;;;;0.73;83.50;98098.41;10445512;28;20041;-62
2023/12/20 09:30:05;;;;;;;0.65;0.45;;;;;;;0.71;83.70;98097.88;10444094;28;20049;-62
2023/12/20 09:35:08;;;;;;;0.35;0.35;;;;;;;0.71;83.58;98114.06;10449260;28;20041;-62
2023/12/20 09:40:12;;;;;;;3.80;0.50;;;;;;;0.71;83.84;98116.78;10446309;28;20041;-62
2023/12/20 09:45:17;;;;;;;0.82;0.40;;;;;;;0.76;83.24;98137.53;10438221;28;20060;-62
2023/12/20 09:50:20;;;;;;;2.10;0.50;;;;;;;0.75;83.58;98150.22;10441841;28;20048;-63
2023/12/20 09:55:25;;;;;;;1.00;0.22;;;;;;;0.76;83.60;98145.63;10442531;28;20038;-63
2023/12/20 10:00:27;;;;;;;2.13;0.30;;;;;;;0.83;83.23;98163.09;10445042;28;20048;-63
2023/12/20 10:05:34;;;;;;;2.15;0.68;;;;;;;0.88;82.58;98160.41;10443963;28;20045;-62
2023/12/20 10:10:36;;;;;;;0.30;0.30;;;;;;;0.95;82.46;98170.06;10441098;28;20052;-62
2023/12/20 10:15:39;;;;;;;1.65;0.40;;;;;;;0.89;82.49;98182.81;10443690;28;20037;-62
2023/12/20 10:20:42;;;;;;;0.52;0.15;;;;;;;0.92;83.30;98189.53;10434298;28;20033;-62
2023/12/20 10:25:55;;;;;;;1.08;0.35;;;;;;;0.85;83.68;98197.91;10441425;28;20064;-62
2023/12/20 10:30:57;;;;;;;1.33;0.40;;;;;;;0.78;84.37;98208.22;10440654;28;20045;-62
2023/12/20 10:36:00;;;;;;;4.35;0.60;;;;;;;0.78;84.81;98214.44;10443147;28;20041;-63
2023/12/20 10:41:03;;;;;;;3.60;0.85;;;;;;;0.74;85.09;98217.97;10442207;28;20465;-63
2023/12/20 10:46:06;;;;;;;0.38;0.38;;;;;;;0.75;84.70;98230.38;10442489;28;20524;-63
2023/12/20 10:51:09;;;;;;;0.88;0.40;;;;;;;0.77;85.24;98237.09;10441473;28;20033;-62
2023/12/20 10:56:18;;;;;;;1.10;0.25;;;;;;;0.80;84.96;98244.66;10428091;28;20044;-62
2023/12/20 11:01:20;;;;;;;0.82;0.30;;;;;;;0.78;84.28;98251.41;10441887;28;20044;-61
2023/12/20 11:06:23;;;;;;;1.85;0.50;;;;;;;0.79;84.79;98263.81;10441269;28;20033;-63
2023/12/20 11:11:30;;;;;;;2.80;0.60;;;;;;;0.76;84.56;98265.19;10441227;28;20048;-61
2023/12/20 11:16:32;;;;;;;0.20;0.20;;;;;;;0.77;84.27;98266.81;10434433;28;20037;-62
2023/12/20 11:21:35;;;;;;;2.50;0.70;;;;;;;0.79;84.12;98274.63;10446894;28;20506;-61
2023/12/20 11:26:38;;;;;;;1.70;0.43;;;;;;;0.83;84.61;98289.19;10443206;28;20496;-63
2023/12/20 11:31:41;;;;;;;4.60;0.65;;;;;;;0.78;85.13;98289.19;10443641;28;20044;-63
2023/12/20 11:36:43;;;;;;;1.42;0.28;;;;;;;0.81;85.99;98275.16;10441705;28;20048;-62
2023/12/20 11:41:46;;;;;;;1.08;0.38;;;;;;;0.88;85.84;98284.59;10442547;28;20041;-62
2023/12/20 11:46:48;;;;;;;3.22;0.70;;;;;;;0.97;85.24;98297.50;10437824;28;20429;-62
2023/12/20 11:51:51;;;;;;;1.30;1.15;;;;;;;0.86;85.21;98294.84;10441422;28;20037;-61
2023/12/20 11:56:54;;;;;;;3.28;0.70;;;;;;;0.83;85.09;98303.47;10442373;28;20041;-61
2023/12/20 12:02:00;;;;;;;4.20;0.77;;;;;;;0.81;86.28;98308.34;10407473;28;20101;-61
2023/12/20 12:07:03;;;;;;;2.90;0.60;;;;;;;0.83;86.08;98319.69;10407812;28;20049;-62
2023/12/20 12:12:06;;;;;;;1.45;0.50;;;;;;;0.80;86.14;98325.63;10409953;28;20421;-62
2023/12/20 12:17:12;;;;;;;3.83;0.20;;;;;;;0.79;86.38;98323.22;10423983;28;20041;-62
2023/12/20 12:22:16;;;;;;;1.00;0.50;;;;;;;0.79;85.48;98344.81;10451086;28;20056;-62
2023/12/20 12:27:18;;;;;;;3.40;0.68;;;;;;;0.81;86.08;98337.25;10449938;28;20416;-62
2023/12/20 12:32:21;;;;;;;0.20;0.20;;;;;;;0.77;86.16;98349.66;10450646;28;20049;-62
2023/12/20 12:37:26;;;;;;;0.25;0.05;;;;;;;0.77;86.29;98353.19;10416298;28;20449;-62
2023/12/20 12:42:28;;;;;;;1.40;0.60;;;;;;;0.78;85.89;98379.09;10443428;28;20041;-62
2023/12/20 12:47:31;;;;;;;3.63;0.73;;;;;;;0.78;85.22;98380.97;10434128;28;20057;-62
2023/12/20 12:52:33;;;;;;;2.53;0.35;;;;;;;0.76;86.02;98383.97;10419753;28;20504;-62
2023/12/20 12:57:39;;;;;;;2.45;0.77;;;;;;;0.77;85.84;98396.38;10411076;28;20048;-62
2023/12/20 13:02:41;;;;;;;0.93;0.30;;;;;;;0.77;86.25;98396.38;10403305;28;20046;-62
2023/12/20 13:07:45;;;;;;;1.08;0.47;;;;;;;0.77;86.11;98390.97;10446409;28;20048;-61
2023/12/20 13:12:48;;;;;;;0.60;0.30;;;;;;;0.81;86.16;98407.44;10448655;28;20049;-61
2023/12/20 13:17:50;;;;;;;0.95;0.30;;;;;;;0.76;85.51;98412.84;10447447;28;20044;-62
2023/12/20 13:22:53;;;;;;;1.33;0.65;;;;;;;0.77;86.48;98417.16;10447890;28;20037;-62
2023/12/20 13:27:55;;;;;;;2.08;0.68;;;;;;;0.72;86.62;98427.97;10422842;28;20042;-62
2023/12/20 13:32:58;;;;;;;1.85;0.57;;;;;;;0.75;86.06;98441.72;10420137;28;20048;-63
2023/12/20 13:38:00;;;;;;;0.80;0.50;;;;;;;0.70;86.64;98441.75;10441598;28;20052;-61
2023/12/20 13:43:02;;;;;;;3.33;0.80;;;;;;;0.76;86.84;98451.44;10446402;28;20033;-62
2023/12/20 13:48:05;;;;;;;0.93;0.60;;;;;;;0.71;86.62;98456.84;10444613;28;20041;-62
2023/12/20 13:53:07;;;;;;;0.70;0.50;;;;;;;0.68;86.97;98453.84;10443047;28;20045;-62
2023/12/20 13:58:11;;;;;;;1.55;0.40;;;;;;;0.65;87.27;98468.72;10443650;28;20044;-62
2023/12/20 14:03:13;;;;;;;4.18;0.60;;;;;;;0.65;87.02;98457.91;10443189;28;20041;-62
2023/12/20 14:08:16;;;;;;;2.25;0.60;;;;;;;0.71;86.95;98472.25;10435586;28;20578;-62
2023/12/20 14:13:20;;;;;;;7.32;1.08;;;;;;;0.66;87.01;98472.22;10432459;28;20033;-62
2023/12/20 14:18:23;;;;;;;3.63;0.43;;;;;;;0.58;87.53;98477.09;10430139;28;20517;-60
2023/12/20 14:23:25;;;;;;;4.30;0.85;;;;;;;0.52;87.84;98483.56;10439525;28;20703;-61
2023/12/20 14:28:31;;;;;;;4.88;0.50;;;;;;;0.39;88.40;98486.78;10444829;28;20045;-61
2023/12/20 14:33:34;;;;;;;1.75;0.50;;;;;;;0.26;88.15;98489.97;10442632;28;20417;-63
2023/12/20 14:38:37;;;;;;;1.63;0.60;;;;;;;0.17;88.34;98489.69;10438732;28;20053;-63
2023/12/20 14:43:40;;;;;;;5.88;0.47;;;;;;;0.09;88.89;98492.09;10444493;28;20052;-64
2023/12/20 14:48:42;;;;;;;0.82;0.20;;;;;;;0.02;88.81;98497.75;10442632;28;20060;-64
2023/12/20 14:53:47;;;;;;;2.03;0.50;;;;;;;-0.03;89.32;98506.59;10440769;28;20033;-65
2023/12/20 14:58:49;;;;;;;3.30;0.50;;;;;;;0.00;89.22;98494.50;10428049;28;20433;-61
2023/12/20 15:03:52;;;;;;;4.70;0.65;;;;;;;0.01;89.43;98498.81;10424940;28;20041;-63
2023/12/20 15:08:55;;;;;;;2.45;0.70;;;;;;;-0.01;90.03;98499.06;10418695;28;20038;-64
2023/12/20 15:14:00;;;;;;;2.22;0.60;;;;;;;0.03;90.78;98496.69;10439649;28;20049;-61
2023/12/20 15:19:03;;;;;;;2.97;0.40;;;;;;;0.07;90.51;98508.53;10439704;28;20044;-63
2023/12/20 15:24:08;;;;;;;3.22;1.13;;;;;;;0.02;90.64;98513.94;10430007;28;20050;-61
2023/12/20 15:29:13;;;;;;;0.68;0.20;;;;;;;-0.06;90.31;98507.16;10438794;28;20044;-62
2023/12/20 15:34:15;;;;;;;2.38;0.70;;;;;;;-0.04;90.56;98509.56;10435911;28;20037;-63
2023/12/20 15:39:18;;;;;;;1.05;0.73;;;;;;;-0.07;90.04;98521.69;10436312;28;20037;-62
2023/12/20 15:44:20;;;;;;;1.73;0.50;;;;;;;-0.11;89.16;98525.19;10435779;28;20049;-62
2023/12/20 15:49:22;;;;;;;0.30;0.15;;;;;;;-0.11;88.42;98530.59;10436456;28;20049;-63
2023/12/20 15:54:25;;;;;;;0.45;0.38;;;;;;;-0.10;88.31;98533.00;10437523;28;20085;-61
2023/12/20 15:59:28;;;;;;;2.28;0.32;;;;;;;-0.09;87.09;98550.81;10457497;28;20040;-61
2023/12/20 16:04:30;;;;;;;0.85;0.70;;;;;;;-0.06;87.36;98541.38;10452760;28;20044;-61
2023/12/20 16:09:33;;;;;;;2.97;0.30;;;;;;;-0.04;87.30;98556.22;10439980;28;20052;-61
2023/12/20 16:14:35;;;;;;;0.57;0.38;;;;;;;-0.04;88.15;98563.50;10440510;28;20032;-61
2023/12/20 16:19:38;;;;;;;1.65;0.40;;;;;;;-0.09;87.37;98572.38;10439527;28;20045;-62
2023/12/20 16:24:41;;;;;;;1.88;0.30;;;;;;;-0.20;87.78;98575.28;10437558;28;20474;-62
2023/12/20 16:29:43;;;;;;;0.43;0.43;;;;;;;-0.25;87.87;98578.75;10438523;28;20048;-61
2023/12/20 16:34:48;;;;;;;0.52;0.35;;;;;;;-0.33;87.80;98587.34;10436696;28;20045;-61
2023/12/20 16:39:51;;;;;;;0.55;0.40;;;;;;;-0.38;88.49;98601.56;10435216;28;20041;-61
2023/12/20 16:44:55;;;;;;;0.98;0.68;;;;;;;-0.38;89.03;98601.56;10437563;28;20468;-62
2023/12/20 16:49:58;;;;;;;1.65;0.65;;;;;;;-0.44;89.21;98599.94;10441892;28;20037;-61
2023/12/20 16:55:00;;;;;;;0.85;0.60;;;;;;;-0.48;89.86;98601.53;10448880;28;20037;-63
2023/12/20 17:00:03;;;;;;;0.38;0.35;;;;;;;-0.54;90.40;98591.78;10450332;28;20040;-64
2023/12/20 17:05:06;;;;;;;1.55;0.30;;;;;;;-0.63;90.76;98587.94;10442750;28;20033;-65
2023/12/20 17:10:08;;;;;;;2.63;0.40;;;;;;;-0.69;90.96;98600.56;10445545;28;20048;-64
2023/12/20 17:15:11;;;;;;;0.90;0.60;;;;;;;-0.71;91.30;98605.38;10438249;28;20041;-63
2023/12/20 17:20:13;;;;;;;0.50;0.40;;;;;;;-0.71;91.07;98608.06;10458447;28;20037;-62
2023/12/20 17:25:16;;;;;;;1.20;0.55;;;;;;;-0.63;91.60;98613.00;10440105;28;20037;-63
2023/12/20 17:30:19;;;;;;;2.72;0.85;;;;;;;-0.64;91.93;98619.47;10446898;28;20037;-66
2023/12/20 17:35:22;;;;;;;1.20;0.55;;;;;;;-0.64;91.74;98611.38;10445238;28;20029;-63
2023/12/20 17:40:24;;;;;;;4.65;1.17;;;;;;;-0.59;92.22;98613.28;10457185;28;20053;-63
2023/12/20 17:45:26;;;;;;;1.10;0.63;;;;;;;-0.53;92.17;98617.63;10444792;28;20053;-64
2023/12/20 17:50:29;;;;;;;3.20;0.98;;;;;;;-0.54;92.39;98621.41;10445723;28;20045;-64
2023/12/20 17:55:31;;;;;;;1.83;0.90;;;;;;;-0.52;92.61;98621.97;10413383;28;20041;-64
2023/12/20 18:00:34;;;;;;;3.38;0.90;;;;;;;-0.43;92.54;98625.81;10445503;28;20044;-64
2023/12/20 18:05:37;;;;;;;0.55;0.55;;;;;;;-0.37;92.25;98632.03;10432900;28;20042;-64
2023/12/20 18:10:41;;;;;;;2.58;0.60;;;;;;;-0.35;91.84;98622.66;10404290;28;20049;-64
2023/12/20 18:15:44;;;;;;;1.00;0.70;;;;;;;-0.40;91.18;98630.66;10442856;28;20037;-64
2023/12/20 18:20:49;;;;;;;1.15;0.65;;;;;;;-0.38;91.27;98625.81;10435143;28;20428;-67
2023/12/20 18:25:54;;;;;;;2.50;0.73;;;;;;;-0.46;91.33;98626.31;10443751;28;20048;-68
2023/12/20 18:30:56;;;;;;;2.05;0.82;;;;;;;-0.54;91.31;98617.91;10443289;28;20043;-70
2023/12/20 18:36:00;;;;;;;1.75;0.68;;;;;;;-0.70;91.57;98609.69;10445222;28;20278;-71
2023/12/20 18:41:04;;;;;;;3.67;1.15;;;;;;;-0.71;91.35;98615.34;10453295;28;20576;-70
2023/12/20 18:46:07;;;;;;;1.77;0.75;;;;;;;-0.76;91.64;98610.75;10433055;28;20053;-71
2023/12/20 18:51:10;;;;;;;0.73;0.40;;;;;;;-0.75;92.07;98601.59;10442833;28;20056;-68
2023/12/20 18:56:14;;;;;;;2.35;1.80;;;;;;;-0.71;91.79;98607.28;10445057;28;20386;-70
2023/12/20 19:01:16;;;;;;;0.75;0.65;;;;;;;-0.74;92.37;98615.88;10444652;28;20042;-69
2023/12/20 19:06:19;;;;;;;1.92;0.88;;;;;;;-0.78;92.01;98617.47;10446474;28;20048;-70
2023/12/20 19:11:24;;;;;;;2.80;0.80;;;;;;;-0.84;92.04;98623.88;10441819;28;20033;-69
2023/12/20 19:16:27;;;;;;;0.90;0.63;;;;;;;-0.93;92.19;98629.72;10442931;28;20033;-71
2023/12/20 19:21:29;;;;;;;0.82;0.60;;;;;;;-0.95;92.22;98631.84;10428550;28;20037;-68
2023/12/20 19:26:31;;;;;;;1.70;1.13;;;;;;;-0.88;92.34;98641.59;10435356;28;20036;-67
2023/12/20 19:31:33;;;;;;;4.53;0.80;;;;;;;-0.92;92.76;98642.09;10435037;28;20037;-67
2023/12/20 19:36:37;;;;;;;1.25;0.85;;;;;;;-0.82;92.99;98638.69;10444520;28;20033;-67
2023/12/20 19:41:39;;;;;;;2.95;1.13;;;;;;;-0.84;92.38;98646.22;10434155;28;20041;-67
2023/12/20 19:46:42;;;;;;;0.73;0.73;;;;;;;-0.94;92.22;98649.63;10459668;28;20045;-68
2023/12/20 19:51:44;;;;;;;3.83;0.98;;;;;;;-0.89;92.37;98650.72;10464466;28;20048;-67
2023/12/20 19:56:48;;;;;;;1.63;1.15;;;;;;;-0.93;91.89;98656.63;10450097;28;20136;-69
2023/12/20 20:01:54;;;;;;;1.10;0.77;;;;;;;-0.89;91.95;98662.31;10441593;28;20048;-69
2023/12/20 20:06:57;;;;;;;0.68;0.63;;;;;;;-0.96;91.81;98662.53;10442320;28;20034;-69
2023/12/20 20:12:00;;;;;;;2.05;0.80;;;;;;;-0.92;92.06;98663.63;10442501;28;20428;-72
2023/12/20 20:17:02;;;;;;;4.85;1.80;;;;;;;-0.91;91.94;98665.25;10432308;28;20060;-72
2023/12/20 20:22:04;;;;;;;4.85;1.75;;;;;;;-0.88;91.57;98665.81;10429616;28;21357;-69
2023/12/20 20:27:07;;;;;;;10.43;4.25;;;;;;;-0.83;91.77;98665.88;10448013;28;20029;-69
2023/12/20 20:32:09;;;;;;;6.72;2.50;;;;;;;-0.82;91.12;98670.19;10436653;28;20057;-69
2023/12/20 20:37:11;;;;;;;5.13;2.15;;;;;;;-0.78;90.94;98655.97;10441463;28;20041;-70
2023/12/20 20:42:14;;;;;;;4.85;1.63;;;;;;;-0.81;90.90;98663.75;10446007;28;20041;-69
2023/12/20 20:47:19;;;;;;;6.38;1.67;;;;;;;-0.79;90.41;98661.59;10466341;28;20045;-67
2023/12/20 20:52:23;;;;;;;4.35;2.22;;;;;;;-0.87;91.08;98662.88;10470648;28;20610;-69
2023/12/20 20:57:25;;;;;;;6.72;1.65;;;;;;;-0.89;90.93;98653.44;10452104;28;20505;-66
2023/12/20 21:02:28;;;;;;;3.58;1.50;;;;;;;-0.86;90.34;98647.56;10469050;28;20038;-67
2023/12/20 21:07:34;;;;;;;2.80;1.60;;;;;;;-0.78;90.70;98653.28;10440028;28;20033;-67
2023/12/20 21:12:37;;;;;;;5.00;2.85;;;;;;;-0.60;90.13;98646.69;10444591;28;20040;-65
2023/12/20 21:17:43;;;;;;;5.85;1.90;;;;;;;-0.25;88.90;98654.22;10451212;28;20038;-67
2023/12/20 21:22:45;;;;;;;4.82;1.92;;;;;;;-0.29;88.20;98646.91;10451615;28;20076;-64
2023/12/20 21:27:48;;;;;;;4.55;1.90;;;;;;;-0.17;86.69;98647.56;10449795;28;20054;-65
2023/12/20 21:32:50;;;;;;;5.28;1.80;;;;;;;-0.45;87.51;98649.50;10449932;28;20052;-65
2023/12/20 21:37:53;;;;;;;4.03;1.88;;;;;;;-0.65;87.99;98649.34;10435451;28;20260;-72
2023/12/20 21:42:56;;;;;;;4.18;2.00;;;;;;;-0.66;88.13;98642.34;10460602;28;20045;-71
2023/12/20 21:47:58;;;;;;;4.85;1.77;;;;;;;-0.65;88.09;98642.09;10460132;28;20052;-71
2023/12/20 21:53:01;;;;;;;6.55;2.70;;;;;;;-0.63;88.59;98633.75;10481395;28;20048;-71
2023/12/20 21:58:03;;;;;;;5.60;2.53;;;;;;;-0.61;88.39;98634.28;10455842;28;20029;-71
2023/12/20 22:03:09;;;;;;;5.28;1.83;;;;;;;-0.66;88.66;98631.56;10438582;28;20045;-70
2023/12/20 22:08:12;;;;;;;5.28;2.40;;;;;;;-0.68;88.54;98623.75;10451425;28;20049;-69
2023/12/20 22:13:14;;;;;;;5.80;2.28;;;;;;;-0.66;89.45;98624.28;10472184;28;20535;-70
2023/12/20 22:18:17;;;;;;;5.07;2.38;;;;;;;-0.70;89.40;98616.97;10462562;28;20040;-71
2023/12/20 22:23:19;;;;;;;5.50;2.67;;;;;;;-0.73;89.70;98606.72;10471777;28;20048;-72
2023/12/20 22:28:22;;;;;;;5.88;2.50;;;;;;;-0.81;90.55;98601.81;10450046;28;20040;-71
2023/12/20 22:33:25;;;;;;;6.00;2.03;;;;;;;-0.87;90.91;98592.06;10455676;28;20044;-71
2023/12/20 22:38:30;;;;;;;5.30;2.17;;;;;;;-0.66;91.60;98583.91;10438719;28;20034;-72
2023/12/20 22:43:32;;;;;;;6.32;2.90;;;;;;;-0.98;91.92;98580.41;10455257;28;20421;-73
2023/12/20 22:48:35;;;;;;;5.60;2.60;;;;;;;-1.08;92.98;98583.00;10442584;28;20060;-71
2023/12/20 22:53:37;;;;;;;7.00;3.05;;;;;;;-1.16;94.09;98580.78;10440361;28;20061;-69
2023/12/20 22:58:40;;;;;;;6.97;2.75;;;;;;;-1.14;94.47;98578.66;10445865;28;20045;-72
2023/12/20 23:03:42;;;;;;;7.25;2.85;;;;;;;-1.14;95.29;98570.56;10443611;28;20076;-72
2023/12/20 23:08:45;;;;;;;6.82;2.78;;;;;;;-1.09;95.31;98565.22;10436793;28;20037;-71
2023/12/20 23:13:48;;;;;;;7.43;2.40;;;;;;;-1.12;95.55;98553.09;10447704;28;20044;-72
2023/12/20 23:18:50;;;;;;;7.30;3.17;;;;;;;-1.09;95.33;98543.69;10438517;28;20030;-71
2023/12/20 23:23:52;;;;;;;6.07;3.15;;;;;;;-1.09;95.50;98547.19;10439129;28;20038;-70
2023/12/20 23:28:55;;;;;;;6.53;2.60;;;;;;;-1.09;96.17;98538.31;10448848;28;20029;-71
2023/12/20 23:33:57;;;;;;;7.25;2.70;;;;;;;-1.07;96.66;98534.28;10447663;28;20040;-70
2023/12/20 23:38:59;;;;;;;6.13;3.30;;;;;;;-1.09;96.97;98533.75;10443126;28;20041;-70
2023/12/20 23:44:01;;;;;;;8.05;3.80;;;;;;;-1.08;96.67;98527.28;10434294;28;20045;-72